createdAt,value
2022-07-31T00:00:23.457Z,3.50
2022-07-31T00:02:51.012Z,3.50
2022-07-31T00:05:17.897Z,3.83
2022-07-31T00:07:45.022Z,3.47
2022-07-31T00:10:12.095Z,3.50
2022-07-31T00:12:39.152Z,3.90
2022-07-31T00:15:07.692Z,3.50
2022-07-31T00:17:34.891Z,3.90
2022-07-31T00:20:02.307Z,4.07
2022-07-31T00:22:30.052Z,4.00
2022-07-31T00:24:56.874Z,3.63
2022-07-31T00:27:23.780Z,3.37
2022-07-31T00:29:51.969Z,3.27
2022-07-31T00:32:18.883Z,3.43
2022-07-31T00:34:45.696Z,3.87
2022-07-31T00:37:12.503Z,3.53
2022-07-31T00:39:39.306Z,3.57
2022-07-31T00:42:06.655Z,3.53
2022-07-31T00:44:33.386Z,3.33
2022-07-31T00:47:00.733Z,4.10
2022-07-31T00:49:37.676Z,3.70
2022-07-31T00:52:05.717Z,3.90
2022-07-31T00:54:33.086Z,3.50
2022-07-31T00:57:00.008Z,3.53
2022-07-31T00:59:28.388Z,3.90
2022-07-31T01:01:55.863Z,3.80
2022-07-31T01:04:22.921Z,3.13
2022-07-31T01:06:49.763Z,3.50
2022-07-31T01:09:19.360Z,4.30
2022-07-31T01:11:46.084Z,3.60
2022-07-31T01:14:14.047Z,3.60
2022-07-31T01:16:45.831Z,4.07
2022-07-31T01:19:19.259Z,3.57
2022-07-31T01:22:34.100Z,3.47
2022-07-31T01:25:39.607Z,3.53
2022-07-31T01:28:43.804Z,3.27
2022-07-31T01:31:26.658Z,3.67
2022-07-31T01:34:06.751Z,3.57
2022-07-31T01:36:35.875Z,3.70
2022-07-31T01:39:03.826Z,3.50
2022-07-31T01:41:36.087Z,3.70
2022-07-31T01:44:04.771Z,3.80
2022-07-31T01:46:37.452Z,3.57
2022-07-31T01:49:09.577Z,3.80
2022-07-31T01:51:39.099Z,3.57
2022-07-31T01:54:08.427Z,3.60
2022-07-31T01:56:36.441Z,3.40
2022-07-31T01:59:05.062Z,3.63
2022-07-31T02:01:50.908Z,3.50
2022-07-31T02:04:20.252Z,3.97
2022-07-31T02:06:49.333Z,3.80
2022-07-31T02:09:19.208Z,3.70
2022-07-31T02:11:53.485Z,4.30
2022-07-31T02:14:24.976Z,3.87
2022-07-31T02:16:51.990Z,3.97
2022-07-31T02:19:20.280Z,4.00
2022-07-31T02:21:50.050Z,4.00
2022-07-31T02:24:17.627Z,3.80
2022-07-31T02:26:46.479Z,3.80
2022-07-31T02:29:19.200Z,4.10
2022-07-31T02:32:03.119Z,4.07
2022-07-31T02:34:32.373Z,3.93
2022-07-31T02:37:01.393Z,3.90
2022-07-31T02:39:30.877Z,4.10
2022-07-31T02:42:01.252Z,3.80
2022-07-31T02:44:32.334Z,4.67
2022-07-31T02:47:02.400Z,4.03
2022-07-31T02:49:29.941Z,4.30
2022-07-31T02:51:57.133Z,4.10
2022-07-31T02:54:25.986Z,4.47
2022-07-31T02:56:53.899Z,4.10
2022-07-31T02:59:22.274Z,4.20
2022-07-31T03:01:49.255Z,4.03
2022-07-31T03:04:16.003Z,4.73
2022-07-31T03:06:43.441Z,4.87
2022-07-31T03:09:10.262Z,4.60
2022-07-31T03:11:37.096Z,4.40
2022-07-31T03:14:05.470Z,4.40
2022-07-31T03:16:34.329Z,3.80
2022-07-31T03:19:03.081Z,4.97
2022-07-31T03:21:31.503Z,4.43
2022-07-31T03:23:59.770Z,4.33
2022-07-31T03:26:27.077Z,4.70
2022-07-31T03:28:54.347Z,4.33
2022-07-31T03:31:21.831Z,4.90
2022-07-31T03:33:48.579Z,4.47
2022-07-31T03:36:15.540Z,4.30
2022-07-31T03:38:44.738Z,4.17
2022-07-31T03:41:13.392Z,4.70
2022-07-31T03:43:44.343Z,4.50
2022-07-31T03:46:17.154Z,4.67
2022-07-31T03:48:44.954Z,4.87
2022-07-31T03:51:13.566Z,4.07
2022-07-31T03:53:41.287Z,4.10
2022-07-31T03:56:08.879Z,4.97
2022-07-31T03:58:36.735Z,4.53
2022-07-31T04:01:10.649Z,4.60
2022-07-31T04:03:39.295Z,4.57
2022-07-31T04:06:06.305Z,4.70
2022-07-31T04:08:33.907Z,4.70
2022-07-31T04:11:00.679Z,4.67
2022-07-31T04:13:28.627Z,5.37
2022-07-31T04:15:55.331Z,4.37
2022-07-31T04:18:22.043Z,5.47
2022-07-31T04:20:49.518Z,4.63
2022-07-31T04:23:16.890Z,5.40
2022-07-31T04:25:43.652Z,4.93
2022-07-31T04:28:10.442Z,5.03
2022-07-31T04:30:37.907Z,5.40
2022-07-31T04:33:04.627Z,4.90
2022-07-31T04:35:33.365Z,5.30
2022-07-31T04:38:00.110Z,5.50
2022-07-31T04:40:27.852Z,5.17
2022-07-31T04:42:55.349Z,5.87
2022-07-31T04:45:22.449Z,5.87
2022-07-31T04:47:49.234Z,5.77
2022-07-31T04:50:18.196Z,6.30
2022-07-31T04:52:45.404Z,5.73
2022-07-31T04:55:12.133Z,5.83
2022-07-31T04:57:38.979Z,7.37
2022-07-31T05:00:07.226Z,6.90
2022-07-31T05:02:33.992Z,8.30
2022-07-31T05:05:00.791Z,7.50
2022-07-31T05:07:28.881Z,7.37
2022-07-31T05:09:56.854Z,7.40
2022-07-31T05:12:23.608Z,7.93
2022-07-31T05:14:50.433Z,8.00
2022-07-31T05:17:17.302Z,8.23
2022-07-31T05:19:44.040Z,8.27
2022-07-31T05:22:11.655Z,7.90
2022-07-31T05:24:38.883Z,7.77
2022-07-31T05:27:05.775Z,8.77
2022-07-31T05:29:33.663Z,8.87
2022-07-31T05:32:01.432Z,9.50
2022-07-31T05:34:30.053Z,8.40
2022-07-31T05:37:02.127Z,8.70
2022-07-31T05:39:30.143Z,9.50
2022-07-31T05:41:57.126Z,9.47
2022-07-31T05:44:24.463Z,9.80
2022-07-31T05:49:17.197Z,11.00
2022-07-31T05:51:44.950Z,10.07
2022-07-31T05:54:11.734Z,9.50
2022-07-31T05:56:38.523Z,10.83
2022-07-31T05:59:05.209Z,9.63
2022-07-31T06:01:32.062Z,10.27
2022-07-31T06:03:58.846Z,9.10
2022-07-31T06:06:25.972Z,9.83
2022-07-31T06:08:52.934Z,9.33
2022-07-31T06:11:19.883Z,10.40
2022-07-31T06:13:46.663Z,10.20
2022-07-31T06:16:14.978Z,8.60
2022-07-31T06:18:42.758Z,9.90
2022-07-31T06:21:09.852Z,8.87
2022-07-31T06:23:37.283Z,9.83
2022-07-31T06:26:04.257Z,9.63
2022-07-31T06:28:37.903Z,9.80
2022-07-31T06:31:21.599Z,9.80
2022-07-31T06:33:50.237Z,11.50
2022-07-31T06:36:18.213Z,11.77
2022-07-31T06:38:45.879Z,11.33
2022-07-31T06:41:33.491Z,11.40
2022-07-31T06:44:00.234Z,11.90
2022-07-31T06:46:27.669Z,11.60
2022-07-31T06:48:54.511Z,10.97
2022-07-31T06:51:36.836Z,10.97
2022-07-31T06:54:05.329Z,10.47
2022-07-31T06:56:32.788Z,9.17
2022-07-31T06:59:00.529Z,9.90
2022-07-31T07:01:27.896Z,10.73
2022-07-31T07:03:55.547Z,8.80
2022-07-31T07:06:22.954Z,8.80
2022-07-31T07:08:50.177Z,8.37
2022-07-31T07:11:17.094Z,7.50
2022-07-31T07:13:44.975Z,7.50
2022-07-31T07:16:12.788Z,6.93
2022-07-31T07:18:39.548Z,7.00
2022-07-31T07:21:06.464Z,7.17
2022-07-31T07:23:34.004Z,6.70
2022-07-31T07:26:00.791Z,6.50
2022-07-31T07:28:30.392Z,6.60
2022-07-31T07:30:57.966Z,6.73
2022-07-31T07:33:41.533Z,5.97
2022-07-31T07:36:23.061Z,6.97
2022-07-31T07:38:53.713Z,6.83
2022-07-31T07:41:23.303Z,6.77
2022-07-31T07:43:52.297Z,7.00
2022-07-31T07:46:23.852Z,6.27
2022-07-31T07:48:51.069Z,6.07
2022-07-31T07:51:18.854Z,5.73
2022-07-31T07:53:45.766Z,6.30
2022-07-31T07:56:12.592Z,6.07
2022-07-31T07:58:39.485Z,6.47
2022-07-31T08:01:06.437Z,6.27
2022-07-31T08:03:50.935Z,5.80
2022-07-31T08:06:21.051Z,6.50
2022-07-31T08:08:48.320Z,6.67
2022-07-31T08:11:16.966Z,6.60
2022-07-31T08:13:50.184Z,6.57
2022-07-31T08:16:21.991Z,6.37
2022-07-31T08:18:50.294Z,6.07
2022-07-31T08:21:17.860Z,6.07
2022-07-31T08:23:44.677Z,6.77
2022-07-31T08:26:13.102Z,6.30
2022-07-31T08:28:41.596Z,6.40
2022-07-31T08:31:17.056Z,6.43
2022-07-31T08:33:43.792Z,6.90
2022-07-31T08:36:10.564Z,5.90
2022-07-31T08:38:38.462Z,6.90
2022-07-31T08:41:05.464Z,6.67
2022-07-31T08:44:00.618Z,7.00
2022-07-31T08:46:20.307Z,6.23
2022-07-31T08:48:48.403Z,5.83
2022-07-31T08:51:17.064Z,6.10
2022-07-31T08:53:45.430Z,5.37
2022-07-31T08:56:13.354Z,5.47
2022-07-31T08:58:40.274Z,6.03
2022-07-31T09:01:11.362Z,5.70
2022-07-31T09:03:39.062Z,5.47
2022-07-31T09:06:06.557Z,6.10
2022-07-31T09:08:35.289Z,6.20
2022-07-31T09:11:14.861Z,6.20
2022-07-31T09:14:02.878Z,6.10
2022-07-31T09:16:31.339Z,6.03
2022-07-31T09:19:51.258Z,7.20
2022-07-31T09:21:52.555Z,5.77
2022-07-31T09:24:31.890Z,7.13
2022-07-31T09:27:08.776Z,6.90
2022-07-31T09:29:35.676Z,6.47
2022-07-31T09:32:21.479Z,5.87
2022-07-31T09:34:49.313Z,5.20
2022-07-31T09:37:18.861Z,6.20
2022-07-31T09:39:56.252Z,5.70
2022-07-31T09:42:35.751Z,5.70
2022-07-31T09:45:02.592Z,5.00
2022-07-31T09:47:32.652Z,5.20
2022-07-31T09:50:03.951Z,4.57
2022-07-31T09:52:32.640Z,4.73
2022-07-31T09:55:15.022Z,4.67
2022-07-31T09:57:57.779Z,4.20
2022-07-31T10:00:25.909Z,4.70
2022-07-31T10:02:55.287Z,4.10
2022-07-31T10:05:25.333Z,3.83
2022-07-31T10:07:53.474Z,3.77
2022-07-31T10:10:22.774Z,4.20
2022-07-31T10:12:53.176Z,3.40
2022-07-31T10:15:20.940Z,3.90
2022-07-31T10:17:51.426Z,4.90
2022-07-31T10:20:22.433Z,3.47
2022-07-31T10:22:54.078Z,3.70
2022-07-31T10:25:27.768Z,3.63
2022-07-31T10:27:56.995Z,3.60
2022-07-31T10:30:28.208Z,3.80
2022-07-31T10:32:58.527Z,3.50
2022-07-31T10:35:25.842Z,4.80
2022-07-31T10:38:17.933Z,4.90
2022-07-31T10:41:03.869Z,4.80
2022-07-31T10:43:43.780Z,4.30
2022-07-31T10:46:10.643Z,3.57
2022-07-31T10:48:37.441Z,3.57
2022-07-31T10:51:07.295Z,3.77
2022-07-31T10:53:41.454Z,3.40
2022-07-31T10:56:18.409Z,3.23
2022-07-31T10:58:56.284Z,3.73
2022-07-31T11:01:23.924Z,4.23
2022-07-31T11:03:59.849Z,3.80
2022-07-31T11:06:27.403Z,3.93
2022-07-31T11:08:54.794Z,3.20
2022-07-31T11:11:36.738Z,3.23
2022-07-31T11:14:04.224Z,3.53
2022-07-31T11:16:31.030Z,3.50
2022-07-31T11:18:59.657Z,3.60
2022-07-31T11:21:39.821Z,3.80
2022-07-31T11:24:13.136Z,3.73
2022-07-31T11:26:58.769Z,3.43
2022-07-31T11:30:01.672Z,3.63
2022-07-31T11:32:26.766Z,3.83
2022-07-31T11:34:55.363Z,3.27
2022-07-31T11:37:25.338Z,3.50
2022-07-31T11:39:53.680Z,3.40
2022-07-31T11:42:26.443Z,3.13
2022-07-31T11:45:11.064Z,3.37
2022-07-31T11:48:11.319Z,3.20
2022-07-31T11:50:43.917Z,3.57
2022-07-31T11:53:11.596Z,2.87
2022-07-31T11:56:05.259Z,3.03
2022-07-31T11:58:32.370Z,3.40
2022-07-31T12:01:01.538Z,3.40
2022-07-31T12:03:42.598Z,2.93
2022-07-31T12:06:10.738Z,3.40
2022-07-31T12:08:38.549Z,3.43
2022-07-31T12:11:08.034Z,3.60
2022-07-31T12:13:34.878Z,3.20
2022-07-31T12:16:11.458Z,3.10
2022-07-31T12:19:00.894Z,3.33
2022-07-31T12:21:40.069Z,3.30
2022-07-31T12:24:12.601Z,3.20
2022-07-31T12:26:44.259Z,3.60
2022-07-31T12:29:12.869Z,3.00
2022-07-31T12:31:53.743Z,3.33
2022-07-31T12:34:41.889Z,3.20
2022-07-31T12:37:11.290Z,3.40
2022-07-31T12:39:59.282Z,3.10
2022-07-31T12:42:35.300Z,3.27
2022-07-31T12:45:19.214Z,2.80
2022-07-31T12:47:51.619Z,3.20
2022-07-31T12:50:23.694Z,3.27
2022-07-31T12:52:51.087Z,3.30
2022-07-31T12:55:17.990Z,3.63
2022-07-31T12:57:50.618Z,3.70
2022-07-31T13:00:24.263Z,3.53
2022-07-31T13:02:52.487Z,3.50
2022-07-31T13:05:19.837Z,3.70
2022-07-31T13:07:47.255Z,3.23
2022-07-31T13:10:20.334Z,3.20
2022-07-31T13:12:52.264Z,3.43
2022-07-31T13:15:22.649Z,3.20
2022-07-31T13:17:50.288Z,3.10
2022-07-31T13:20:18.447Z,3.57
2022-07-31T13:22:45.372Z,3.67
2022-07-31T13:25:12.136Z,3.60
2022-07-31T13:27:39.490Z,3.50
2022-07-31T13:30:09.090Z,3.70
2022-07-31T13:32:36.348Z,3.30
2022-07-31T13:35:26.627Z,3.50
2022-07-31T13:37:50.514Z,3.00
2022-07-31T13:40:18.951Z,3.50
2022-07-31T13:42:45.724Z,3.40
2022-07-31T13:45:12.458Z,3.10
2022-07-31T13:47:50.961Z,3.10
2022-07-31T13:50:19.451Z,3.30
2022-07-31T13:52:46.287Z,3.40
2022-07-31T13:55:13.082Z,3.70
2022-07-31T13:57:39.858Z,3.40
2022-07-31T14:00:07.956Z,3.03
2022-07-31T14:02:34.693Z,3.40
2022-07-31T14:05:01.615Z,3.47
2022-07-31T14:07:45.571Z,3.43
2022-07-31T14:10:20.210Z,3.17
2022-07-31T14:12:47.734Z,3.30
2022-07-31T14:15:14.757Z,3.87
2022-07-31T14:17:41.573Z,3.23
2022-07-31T14:20:09.361Z,3.40
2022-07-31T14:22:36.173Z,3.53
2022-07-31T14:25:03.044Z,3.37
2022-07-31T14:27:30.365Z,3.47
2022-07-31T14:29:57.241Z,3.80
2022-07-31T14:32:25.118Z,3.20
2022-07-31T14:34:52.599Z,3.00
2022-07-31T14:37:20.622Z,3.40
2022-07-31T14:39:47.757Z,3.40
2022-07-31T14:42:14.558Z,3.63
2022-07-31T14:44:42.609Z,3.57
2022-07-31T14:47:11.243Z,3.40
2022-07-31T14:50:09.079Z,3.37
2022-07-31T14:52:26.691Z,3.47
2022-07-31T14:54:54.112Z,4.00
2022-07-31T14:57:22.347Z,3.13
2022-07-31T14:59:50.283Z,3.90
2022-07-31T15:02:22.233Z,3.60
2022-07-31T15:04:50.958Z,3.30
2022-07-31T15:07:36.657Z,2.90
2022-07-31T15:10:07.322Z,3.20
2022-07-31T15:12:34.571Z,3.20
2022-07-31T15:15:01.414Z,4.00
2022-07-31T15:17:28.325Z,3.50
2022-07-31T15:19:55.598Z,3.33
2022-07-31T15:22:22.410Z,3.50
2022-07-31T15:24:50.437Z,3.50
2022-07-31T15:27:21.863Z,3.40
2022-07-31T15:30:04.511Z,3.50
2022-07-31T15:32:38.473Z,3.60
2022-07-31T15:35:07.618Z,3.37
2022-07-31T15:37:38.875Z,3.73
2022-07-31T15:40:08.084Z,3.33
2022-07-31T15:42:40.336Z,3.43
2022-07-31T15:45:12.315Z,3.17
2022-07-31T15:47:39.859Z,3.20
2022-07-31T15:50:08.831Z,3.30
2022-07-31T15:52:35.668Z,3.10
2022-07-31T15:55:03.222Z,3.43
2022-07-31T15:57:30.010Z,3.10
2022-07-31T15:59:56.819Z,2.80
2022-07-31T16:02:24.389Z,3.20
2022-07-31T16:04:54.810Z,3.30
2022-07-31T16:08:31.291Z,3.20
2022-07-31T16:10:17.729Z,3.07
2022-07-31T16:12:48.721Z,2.73
2022-07-31T16:15:16.944Z,3.17
2022-07-31T16:17:44.551Z,4.33
2022-07-31T16:20:26.396Z,4.07
2022-07-31T16:22:56.918Z,6.27
2022-07-31T16:25:24.764Z,7.63
2022-07-31T16:27:52.217Z,7.80
2022-07-31T16:30:19.910Z,9.00
2022-07-31T16:32:46.630Z,9.47
2022-07-31T16:35:13.422Z,7.80
2022-07-31T16:37:52.349Z,9.03
2022-07-31T16:40:30.464Z,7.23
2022-07-31T16:43:48.354Z,7.13
2022-07-31T16:45:51.236Z,7.33
2022-07-31T16:48:18.447Z,7.60
2022-07-31T16:50:45.915Z,8.10
2022-07-31T16:54:10.601Z,8.60
2022-07-31T16:56:06.543Z,8.77
2022-07-31T16:58:33.389Z,8.70
2022-07-31T17:01:00.373Z,9.30
2022-07-31T17:03:59.432Z,8.90
2022-07-31T17:06:14.172Z,9.30
2022-07-31T17:08:43.772Z,9.90
2022-07-31T17:11:10.524Z,9.97
2022-07-31T17:13:37.321Z,9.77
2022-07-31T17:16:04.479Z,9.67
2022-07-31T17:18:31.254Z,10.00
2022-07-31T17:20:59.822Z,10.60
2022-07-31T17:23:43.294Z,10.03
2022-07-31T17:26:21.333Z,11.73
2022-07-31T17:28:50.354Z,11.33
2022-07-31T17:31:18.843Z,10.90
2022-07-31T17:33:58.858Z,10.93
2022-07-31T17:36:29.017Z,10.93
2022-07-31T17:38:59.341Z,12.73
2022-07-31T17:41:26.362Z,12.33
2022-07-31T17:43:56.065Z,11.70
2022-07-31T17:46:29.338Z,10.73
2022-07-31T17:49:04.604Z,9.27
2022-07-31T17:51:31.483Z,9.73
2022-07-31T17:53:59.346Z,9.87
2022-07-31T17:56:27.123Z,8.00
2022-07-31T17:58:55.444Z,7.70
2022-07-31T18:01:27.076Z,7.57
2022-07-31T18:03:55.810Z,5.70
2022-07-31T18:06:22.993Z,5.80
2022-07-31T18:08:49.901Z,5.70
2022-07-31T18:11:16.819Z,5.77
2022-07-31T18:13:48.596Z,6.10
2022-07-31T18:16:19.218Z,5.53
2022-07-31T18:18:46.363Z,7.13
2022-07-31T18:21:14.097Z,5.93
2022-07-31T18:23:47.156Z,6.27
2022-07-31T18:26:14.514Z,6.50
2022-07-31T18:28:41.738Z,6.50
2022-07-31T18:31:13.941Z,7.17
2022-07-31T18:33:55.526Z,6.53
2022-07-31T18:36:23.090Z,6.53
2022-07-31T18:38:51.865Z,7.00
2022-07-31T18:41:19.147Z,6.77
2022-07-31T18:43:45.923Z,6.93
2022-07-31T18:46:12.773Z,7.50
2022-07-31T18:48:39.648Z,8.00
2022-07-31T18:51:06.618Z,6.60
2022-07-31T18:53:33.880Z,6.60
2022-07-31T18:56:00.894Z,6.43
2022-07-31T18:58:28.632Z,8.00
2022-07-31T19:00:55.727Z,7.73
2022-07-31T19:03:24.284Z,7.50
2022-07-31T19:05:52.933Z,7.10
2022-07-31T19:08:20.449Z,6.70
2022-07-31T19:10:49.360Z,6.93
2022-07-31T19:13:18.705Z,7.20
2022-07-31T19:15:47.816Z,7.20
2022-07-31T19:18:15.194Z,7.33
2022-07-31T19:20:58.824Z,7.40
2022-07-31T19:23:32.214Z,7.17
2022-07-31T19:26:03.958Z,7.30
2022-07-31T19:28:34.909Z,7.30
2022-07-31T19:31:01.938Z,8.13
2022-07-31T19:33:29.839Z,8.03
2022-07-31T19:36:01.900Z,6.63
2022-07-31T19:38:34.116Z,7.30
2022-07-31T19:41:00.938Z,7.10
2022-07-31T19:43:28.585Z,7.97
2022-07-31T19:46:02.733Z,7.70
2022-07-31T19:48:44.060Z,7.20
2022-07-31T19:51:12.146Z,8.20
2022-07-31T19:53:39.388Z,7.13
2022-07-31T19:56:06.853Z,8.40
2022-07-31T19:58:35.336Z,8.23
2022-07-31T20:01:05.684Z,7.77
2022-07-31T20:03:32.798Z,8.03
2022-07-31T20:05:59.815Z,8.13
2022-07-31T20:08:26.655Z,8.30
2022-07-31T20:10:59.536Z,8.40
2022-07-31T20:13:28.003Z,9.47
2022-07-31T20:15:54.793Z,7.70
2022-07-31T20:18:27.726Z,8.00
2022-07-31T20:20:56.883Z,8.87
2022-07-31T20:23:24.491Z,8.53
2022-07-31T20:25:51.414Z,9.43
2022-07-31T20:28:18.398Z,8.80
2022-07-31T20:30:45.337Z,9.10
2022-07-31T20:33:13.212Z,8.93
2022-07-31T20:35:48.079Z,9.43
2022-07-31T20:38:20.412Z,9.20
2022-07-31T20:40:54.283Z,9.63
2022-07-31T20:43:26.626Z,9.93
2022-07-31T20:45:57.297Z,9.00
2022-07-31T20:48:31.038Z,9.20
2022-07-31T20:51:03.917Z,9.47
2022-07-31T20:53:31.536Z,8.73
2022-07-31T20:55:58.878Z,9.50
2022-07-31T20:58:26.610Z,8.80
2022-07-31T21:00:54.226Z,8.77
2022-07-31T21:03:21.347Z,8.13
2022-07-31T21:05:48.611Z,9.07
2022-07-31T21:08:16.410Z,9.50
2022-07-31T21:10:43.454Z,9.93
2022-07-31T21:13:10.576Z,9.23
2022-07-31T21:15:41.788Z,9.47
2022-07-31T21:18:17.837Z,10.97
2022-07-31T21:20:52.273Z,10.70
2022-07-31T21:23:22.226Z,10.00
2022-07-31T21:25:49.922Z,10.17
2022-07-31T21:28:17.044Z,9.63
2022-07-31T21:30:44.077Z,10.70
2022-07-31T21:33:11.120Z,10.30
2022-07-31T21:35:39.866Z,9.60
2022-07-31T21:38:10.197Z,10.30
2022-07-31T21:40:39.521Z,11.47
2022-07-31T21:43:06.565Z,9.90
2022-07-31T21:45:50.702Z,9.63
2022-07-31T21:48:23.628Z,9.30
2022-07-31T21:50:50.829Z,10.77
2022-07-31T21:53:17.587Z,10.40
2022-07-31T21:55:44.351Z,11.00
2022-07-31T21:58:11.295Z,10.03
2022-07-31T22:00:38.404Z,10.67
2022-07-31T22:03:05.628Z,9.80
2022-07-31T22:05:51.695Z,9.53
2022-07-31T22:08:19.292Z,12.63
2022-07-31T22:10:46.528Z,10.53
2022-07-31T22:13:13.294Z,10.80
2022-07-31T22:15:51.535Z,10.80
2022-07-31T22:18:28.943Z,11.60
2022-07-31T22:20:56.614Z,10.63
2022-07-31T22:23:25.839Z,11.10
2022-07-31T22:25:53.088Z,11.03
2022-07-31T22:28:22.280Z,10.77
2022-07-31T22:30:58.694Z,10.63
2022-07-31T22:33:36.301Z,11.80
2022-07-31T22:36:12.501Z,10.90
2022-07-31T22:38:43.845Z,10.73
2022-07-31T22:41:14.524Z,10.80
2022-07-31T22:44:13.819Z,11.50
2022-07-31T22:46:29.957Z,10.67
2022-07-31T22:49:00.069Z,10.73
2022-07-31T22:51:26.967Z,11.60
2022-07-31T22:53:53.678Z,12.30
2022-07-31T22:56:20.694Z,10.13
2022-07-31T22:58:47.453Z,12.63
2022-07-31T23:01:14.257Z,10.83
2022-07-31T23:03:40.998Z,11.50
2022-07-31T23:06:31.818Z,11.87
2022-07-31T23:08:55.387Z,11.67
2022-07-31T23:11:23.087Z,12.60
2022-07-31T23:13:50.431Z,10.93
2022-07-31T23:16:17.543Z,12.47
2022-07-31T23:18:44.327Z,12.67
2022-07-31T23:21:11.100Z,13.10
2022-07-31T23:23:38.005Z,12.03
2022-07-31T23:26:04.908Z,12.47
2022-07-31T23:28:31.685Z,12.10
2022-07-31T23:30:58.459Z,13.70
2022-07-31T23:33:25.262Z,13.07
2022-07-31T23:35:52.097Z,13.30
2022-07-31T23:38:18.937Z,13.13
2022-07-31T23:40:45.798Z,13.50
2022-07-31T23:43:12.530Z,13.20
2022-07-31T23:45:39.607Z,14.43
2022-07-31T23:48:07.679Z,14.93
2022-07-31T23:50:40.402Z,14.60
2022-07-31T23:53:07.282Z,14.60
2022-07-31T23:55:34.104Z,15.53
2022-07-31T23:58:05.978Z,15.60
